createdAt,value
2023-04-16T00:01:38.604Z,101724.22
2023-04-16T00:05:01.827Z,101720.78
2023-04-16T00:08:24.831Z,101721.63
2023-04-16T00:11:46.639Z,101713.00
2023-04-16T00:15:09.359Z,101708.72
2023-04-16T00:18:32.255Z,101708.72
2023-04-16T00:21:55.400Z,101711.31
2023-04-16T00:25:17.211Z,101672.53
2023-04-16T00:28:39.210Z,101707.88
2023-04-16T00:32:01.018Z,101710.50
2023-04-16T00:35:23.158Z,101713.09
2023-04-16T00:38:46.338Z,101711.38
2023-04-16T00:42:08.586Z,101707.97
2023-04-16T00:45:30.673Z,101709.69
2023-04-16T00:48:54.087Z,101702.78
2023-04-16T00:52:16.585Z,101710.56
2023-04-16T00:55:41.101Z,101714.00
2023-04-16T00:59:03.211Z,101722.66
2023-04-16T01:02:28.109Z,101683.84
2023-04-16T01:05:50.779Z,101703.66
2023-04-16T01:09:12.921Z,101707.13
2023-04-16T01:12:36.661Z,101707.97
2023-04-16T01:15:58.562Z,101711.44
2023-04-16T01:19:20.539Z,101709.72
2023-04-16T01:22:44.432Z,101703.69
2023-04-16T01:26:06.625Z,101708.88
2023-04-16T01:29:28.817Z,101707.16
2023-04-16T01:32:50.833Z,101702.84
2023-04-16T01:36:12.694Z,101699.41
2023-04-16T01:39:35.930Z,101703.72
2023-04-16T01:42:58.047Z,101695.09
2023-04-16T01:46:25.149Z,101691.63
2023-04-16T01:49:48.398Z,101687.34
2023-04-16T01:53:10.312Z,101686.47
2023-04-16T01:56:33.595Z,101676.16
2023-04-16T01:59:55.701Z,101670.97
2023-04-16T02:03:19.117Z,101682.19
2023-04-16T02:06:40.988Z,101683.03
2023-04-16T02:10:02.758Z,101676.13
2023-04-16T02:13:26.322Z,101678.75
2023-04-16T02:16:48.372Z,101677.00
2023-04-16T02:20:11.522Z,101659.78
2023-04-16T02:23:33.044Z,101678.75
2023-04-16T02:26:54.844Z,101679.59
2023-04-16T02:30:18.298Z,101682.19
2023-04-16T02:33:40.217Z,101666.66
2023-04-16T02:37:02.101Z,101680.50
2023-04-16T02:40:23.920Z,101677.03
2023-04-16T02:43:46.064Z,101674.44
2023-04-16T02:47:09.325Z,101684.81
2023-04-16T02:50:31.530Z,101674.47
2023-04-16T02:53:53.734Z,101672.72
2023-04-16T02:57:15.825Z,101676.16
2023-04-16T03:00:37.604Z,101672.72
2023-04-16T03:04:02.160Z,101674.47
2023-04-16T03:07:24.290Z,101673.56
2023-04-16T03:10:46.217Z,101672.72
2023-04-16T03:14:08.135Z,101671.88
2023-04-16T03:17:29.942Z,101671.88
2023-04-16T03:20:54.569Z,101668.41
2023-04-16T03:24:16.444Z,101677.00
2023-04-16T03:27:39.781Z,101657.22
2023-04-16T03:31:02.352Z,101676.16
2023-04-16T03:34:24.100Z,101676.16
2023-04-16T03:37:47.250Z,101675.31
2023-04-16T03:41:09.363Z,101670.13
2023-04-16T03:44:31.827Z,101670.13
2023-04-16T03:47:54.014Z,101670.16
2023-04-16T03:51:16.138Z,101669.28
2023-04-16T03:54:39.590Z,101652.91
2023-04-16T03:58:03.290Z,101661.53
2023-04-16T04:01:25.496Z,101668.44
2023-04-16T04:04:47.796Z,101658.09
2023-04-16T04:08:10.196Z,101658.94
2023-04-16T04:11:39.020Z,101655.50
2023-04-16T04:15:00.829Z,101664.97
2023-04-16T04:18:22.621Z,101658.97
2023-04-16T04:21:44.743Z,101668.44
2023-04-16T04:25:08.711Z,101658.97
2023-04-16T04:28:32.197Z,101664.13
2023-04-16T04:31:55.395Z,101666.72
2023-04-16T04:35:17.258Z,101660.69
2023-04-16T04:38:38.924Z,101650.34
2023-04-16T04:42:03.427Z,101651.22
2023-04-16T04:45:27.026Z,101670.16
2023-04-16T04:48:49.223Z,101660.66
2023-04-16T04:52:11.700Z,101658.09
2023-04-16T04:55:33.697Z,101663.25
2023-04-16T04:58:56.694Z,101660.66
2023-04-16T05:02:20.783Z,101664.94
2023-04-16T05:05:42.788Z,101660.63
2023-04-16T05:09:04.842Z,101664.94
2023-04-16T05:12:27.066Z,101662.34
2023-04-16T05:15:51.493Z,101653.69
2023-04-16T05:19:14.801Z,101651.06
2023-04-16T05:22:36.742Z,101640.72
2023-04-16T05:25:58.560Z,101655.31
2023-04-16T05:29:20.493Z,101652.72
2023-04-16T05:32:42.935Z,101653.59
2023-04-16T05:36:06.697Z,101653.56
2023-04-16T05:39:29.033Z,101650.91
2023-04-16T05:42:50.889Z,101648.28
2023-04-16T05:46:12.579Z,101645.69
2023-04-16T05:49:34.576Z,101649.94
2023-04-16T05:52:57.721Z,101633.53
2023-04-16T05:56:19.937Z,101645.56
2023-04-16T05:59:41.634Z,101648.91
2023-04-16T06:03:04.346Z,101651.44
2023-04-16T06:06:27.498Z,101650.50
2023-04-16T06:09:50.984Z,101645.25
2023-04-16T06:13:13.108Z,101649.47
2023-04-16T06:16:36.641Z,101649.38
2023-04-16T06:19:58.477Z,101644.03
2023-04-16T06:23:23.397Z,101651.66
2023-04-16T06:26:46.748Z,101642.03
2023-04-16T06:30:13.783Z,101646.94
2023-04-16T06:33:35.658Z,101652.72
2023-04-16T06:36:57.318Z,101646.56
2023-04-16T06:40:19.367Z,101647.97
2023-04-16T06:43:42.662Z,101645.09
2023-04-16T06:47:05.292Z,101645.66
2023-04-16T06:50:28.630Z,101629.84
2023-04-16T06:53:50.473Z,101639.69
2023-04-16T06:57:12.455Z,101650.44
2023-04-16T07:00:36.260Z,101640.53
2023-04-16T07:03:58.826Z,101643.03
2023-04-16T07:07:20.949Z,101636.75
2023-04-16T07:10:42.739Z,101630.44
2023-04-16T07:14:04.952Z,101628.38
2023-04-16T07:17:28.384Z,101630.84
2023-04-16T07:20:53.149Z,101629.97
2023-04-16T07:24:17.346Z,101629.09
2023-04-16T07:27:39.167Z,101631.59
2023-04-16T07:31:01.424Z,101628.06
2023-04-16T07:34:25.017Z,101634.03
2023-04-16T07:37:46.761Z,101636.53
2023-04-16T07:41:09.582Z,101637.28
2023-04-16T07:44:32.054Z,101632.72
2023-04-16T07:47:54.325Z,101632.66
2023-04-16T07:51:17.848Z,101644.66
2023-04-16T07:54:40.012Z,101638.25
2023-04-16T07:58:02.799Z,101640.53
2023-04-16T08:01:24.790Z,101640.44
2023-04-16T08:04:47.047Z,101640.38
2023-04-16T08:08:10.953Z,101642.97
2023-04-16T08:11:33.406Z,101647.19
2023-04-16T08:14:55.528Z,101639.97
2023-04-16T08:18:17.252Z,101645.22
2023-04-16T08:21:39.052Z,101637.50
2023-04-16T08:25:02.118Z,101645.38
2023-04-16T08:28:24.290Z,101644.56
2023-04-16T08:31:46.662Z,101639.09
2023-04-16T08:35:08.874Z,101641.41
2023-04-16T08:38:31.571Z,101642.88
2023-04-16T08:41:56.414Z,101641.03
2023-04-16T08:45:19.408Z,101643.53
2023-04-16T08:48:44.060Z,101634.84
2023-04-16T08:52:09.435Z,101633.84
2023-04-16T08:55:37.189Z,101638.91
2023-04-16T08:59:03.223Z,101638.84
2023-04-16T09:02:27.841Z,101635.72
2023-04-16T09:05:51.724Z,101638.53
2023-04-16T09:09:14.308Z,101635.44
2023-04-16T09:12:37.208Z,101630.69
2023-04-16T09:16:01.684Z,101621.84
2023-04-16T09:19:24.438Z,101628.88
2023-04-16T09:22:46.925Z,101639.16
2023-04-16T09:26:08.863Z,101634.88
2023-04-16T09:29:37.862Z,101606.75
2023-04-16T09:33:16.732Z,101638.22
2023-04-16T09:36:38.869Z,101640.38
2023-04-16T09:40:02.229Z,101636.81
2023-04-16T09:43:24.262Z,101618.88
2023-04-16T09:46:46.451Z,101637.66
2023-04-16T09:50:12.658Z,101645.31
2023-04-16T09:53:34.995Z,101640.59
2023-04-16T09:56:58.404Z,101643.03
2023-04-16T10:00:20.906Z,101637.75
2023-04-16T10:03:42.864Z,101634.72
2023-04-16T10:07:06.916Z,101620.75
2023-04-16T10:10:28.550Z,101623.41
2023-04-16T10:13:51.647Z,101634.03
2023-04-16T10:17:13.866Z,101626.75
2023-04-16T10:20:35.866Z,101630.59
2023-04-16T10:23:59.334Z,101628.53
2023-04-16T10:27:22.534Z,101625.63
2023-04-16T10:30:52.653Z,101611.19
2023-04-16T10:34:15.619Z,101618.69
2023-04-16T10:37:39.108Z,101609.25
2023-04-16T10:41:05.098Z,101622.72
2023-04-16T10:44:27.143Z,101615.75
2023-04-16T10:47:49.010Z,101613.63
2023-04-16T10:51:26.122Z,101609.97
2023-04-16T10:54:49.186Z,101619.63
2023-04-16T10:58:30.559Z,101615.34
2023-04-16T11:01:54.217Z,101601.53
2023-04-16T11:05:16.099Z,101622.69
2023-04-16T11:08:53.406Z,101622.41
2023-04-16T11:12:18.662Z,101612.59
2023-04-16T11:15:42.492Z,101621.53
2023-04-16T11:19:04.563Z,101615.13
2023-04-16T11:22:27.260Z,101603.28
2023-04-16T11:25:51.849Z,101626.34
2023-04-16T11:29:16.370Z,101628.69
2023-04-16T11:32:40.754Z,101635.31
2023-04-16T11:36:02.608Z,101641.44
2023-04-16T11:39:24.795Z,101628.88
2023-04-16T11:42:46.680Z,101631.13
2023-04-16T11:46:24.110Z,101629.59
2023-04-16T11:49:50.690Z,101635.06
2023-04-16T11:53:12.912Z,101638.34
2023-04-16T11:56:37.692Z,101633.25
2023-04-16T12:00:02.121Z,101636.38
2023-04-16T12:03:39.793Z,101638.50
2023-04-16T12:07:10.706Z,101641.25
2023-04-16T12:10:36.222Z,101636.38
2023-04-16T12:14:16.543Z,101642.91
2023-04-16T12:17:39.803Z,101642.91
2023-04-16T12:21:08.003Z,101643.75
2023-04-16T12:24:33.856Z,101638.38
2023-04-16T12:27:58.216Z,101617.94
2023-04-16T12:31:37.881Z,101643.75
2023-04-16T12:34:59.811Z,101632.97
2023-04-16T12:38:24.557Z,101635.66
2023-04-16T12:41:47.973Z,101636.47
2023-04-16T12:45:09.793Z,101635.09
2023-04-16T12:48:32.487Z,101643.41
2023-04-16T12:51:54.491Z,101645.91
2023-04-16T12:55:16.343Z,101638.28
2023-04-16T12:58:39.403Z,101636.69
2023-04-16T13:02:03.029Z,101634.34
2023-04-16T13:05:24.803Z,101640.03
2023-04-16T13:08:46.994Z,101635.88
2023-04-16T13:12:09.436Z,101635.44
2023-04-16T13:15:32.994Z,101627.09
2023-04-16T13:18:55.014Z,101643.56
2023-04-16T13:22:16.958Z,101640.34
2023-04-16T13:25:39.969Z,101648.56
2023-04-16T13:29:01.748Z,101638.34
2023-04-16T13:32:25.407Z,101640.22
2023-04-16T13:35:47.514Z,101641.19
2023-04-16T13:39:11.802Z,101639.56
2023-04-16T13:42:33.712Z,101639.78
2023-04-16T13:45:55.455Z,101635.59
2023-04-16T13:49:18.851Z,101633.03
2023-04-16T13:52:41.298Z,101634.91
2023-04-16T13:56:04.299Z,101639.34
2023-04-16T13:59:26.706Z,101637.69
2023-04-16T14:02:49.783Z,101637.56
2023-04-16T14:06:13.909Z,101630.66
2023-04-16T14:09:35.835Z,101638.63
2023-04-16T14:12:58.760Z,101630.78
2023-04-16T14:16:20.649Z,101634.19
2023-04-16T14:19:42.583Z,101633.19
2023-04-16T14:23:05.845Z,101635.81
2023-04-16T14:26:27.629Z,101637.53
2023-04-16T14:29:49.736Z,101631.56
2023-04-16T14:33:11.608Z,101633.28
2023-04-16T14:36:33.599Z,101627.31
2023-04-16T14:39:56.772Z,101628.31
2023-04-16T14:43:18.872Z,101626.63
2023-04-16T14:46:41.128Z,101627.38
2023-04-16T14:50:03.614Z,101626.34
2023-04-16T14:53:25.605Z,101628.88
2023-04-16T14:56:48.879Z,101630.63
2023-04-16T15:00:13.563Z,101628.16
2023-04-16T15:03:36.469Z,101630.03
2023-04-16T15:06:59.347Z,101628.47
2023-04-16T15:10:21.451Z,101625.91
2023-04-16T15:13:44.595Z,101625.91
2023-04-16T15:17:06.881Z,101633.88
2023-04-16T15:20:28.666Z,101640.81
2023-04-16T15:23:50.620Z,101636.63
2023-04-16T15:27:14.104Z,101635.84
2023-04-16T15:30:39.021Z,101637.66
2023-04-16T15:34:01.598Z,101646.44
2023-04-16T15:37:23.673Z,101640.50
2023-04-16T15:40:45.566Z,101620.31
2023-04-16T15:44:07.648Z,101644.28
2023-04-16T15:47:31.170Z,101644.38
2023-04-16T15:50:53.492Z,101645.34
2023-04-16T15:54:15.728Z,101647.16
2023-04-16T15:57:37.618Z,101642.06
2023-04-16T16:00:59.520Z,101644.75
2023-04-16T16:04:23.441Z,101655.28
2023-04-16T16:07:45.712Z,101649.38
2023-04-16T16:11:08.021Z,101646.00
2023-04-16T16:14:30.004Z,101648.81
2023-04-16T16:17:53.558Z,101649.72
2023-04-16T16:21:17.032Z,101646.25
2023-04-16T16:24:38.781Z,101648.88
2023-04-16T16:28:01.890Z,101647.22
2023-04-16T16:31:24.675Z,101654.31
2023-04-16T16:34:46.473Z,101653.47
2023-04-16T16:38:09.788Z,101653.50
2023-04-16T16:41:32.466Z,101657.09
2023-04-16T16:44:56.017Z,101665.03
2023-04-16T16:48:19.386Z,101669.44
2023-04-16T16:51:41.459Z,101661.69
2023-04-16T16:55:05.755Z,101658.31
2023-04-16T16:58:27.741Z,101671.50
2023-04-16T17:01:50.072Z,101668.22
2023-04-16T17:05:12.711Z,101670.00
2023-04-16T17:08:34.576Z,101666.84
2023-04-16T17:11:58.159Z,101672.88
2023-04-16T17:15:21.896Z,101680.03
2023-04-16T17:18:43.901Z,101675.84
2023-04-16T17:22:06.103Z,101676.84
2023-04-16T17:25:28.582Z,101674.31
2023-04-16T17:28:53.324Z,101680.50
2023-04-16T17:32:15.313Z,101681.47
2023-04-16T17:35:37.242Z,101677.28
2023-04-16T17:38:59.467Z,101684.41
2023-04-16T17:42:21.893Z,101685.34
2023-04-16T17:45:45.477Z,101684.66
2023-04-16T17:49:07.472Z,101695.22
2023-04-16T17:52:29.686Z,101692.69
2023-04-16T17:55:54.570Z,101699.72
2023-04-16T17:59:18.073Z,101698.97
2023-04-16T18:02:42.089Z,101704.31
2023-04-16T18:06:04.222Z,101703.50
2023-04-16T18:09:26.386Z,101703.56
2023-04-16T18:12:48.735Z,101682.22
2023-04-16T18:16:16.711Z,101695.81
2023-04-16T18:19:43.725Z,101703.78
2023-04-16T18:23:05.888Z,101706.47
2023-04-16T18:26:29.863Z,101710.00
2023-04-16T18:29:54.578Z,101713.59
2023-04-16T18:36:42.990Z,101712.06
2023-04-16T18:40:10.728Z,101715.53
2023-04-16T18:43:32.874Z,101709.50
2023-04-16T18:46:54.913Z,101711.25
2023-04-16T18:50:16.888Z,101718.25
2023-04-16T18:53:42.454Z,101714.91
2023-04-16T18:57:04.508Z,101712.38
2023-04-16T19:00:26.840Z,101716.75
2023-04-16T19:03:48.787Z,101716.84
2023-04-16T19:07:10.735Z,101715.13
2023-04-16T19:10:34.089Z,101707.38
2023-04-16T19:13:57.501Z,101716.09
2023-04-16T19:17:19.466Z,101719.63
2023-04-16T19:20:41.445Z,101721.38
2023-04-16T19:24:03.286Z,101717.03
2023-04-16T19:27:26.580Z,101721.41
2023-04-16T19:30:51.571Z,101719.72
2023-04-16T19:34:15.474Z,101718.00
2023-04-16T19:37:37.153Z,101726.75
2023-04-16T19:40:59.230Z,101726.75
2023-04-16T19:44:23.402Z,101720.75
2023-04-16T19:47:45.332Z,101719.06
2023-04-16T19:51:07.036Z,101720.81
2023-04-16T19:54:33.719Z,101728.69
2023-04-16T19:57:55.616Z,101713.13
2023-04-16T20:01:18.828Z,101718.34
2023-04-16T20:04:40.866Z,101724.47
2023-04-16T20:08:02.913Z,101723.63
2023-04-16T20:11:24.721Z,101728.88
2023-04-16T20:14:47.410Z,101728.00
2023-04-16T20:18:12.891Z,101730.59
2023-04-16T20:21:35.018Z,101728.06
2023-04-16T20:24:56.933Z,101727.22
2023-04-16T20:28:21.611Z,101736.81
2023-04-16T20:31:44.510Z,101734.31
2023-04-16T20:35:11.378Z,101729.09
2023-04-16T20:38:34.416Z,101725.66
2023-04-16T20:41:57.732Z,101723.94
2023-04-16T20:45:19.560Z,101721.34
2023-04-16T20:48:41.397Z,101720.47
2023-04-16T20:52:05.104Z,101727.41
2023-04-16T20:55:27.020Z,101716.25
2023-04-16T20:58:48.837Z,101717.94
2023-04-16T21:02:10.770Z,101722.34
2023-04-16T21:05:34.072Z,101721.47
2023-04-16T21:08:57.501Z,101725.03
2023-04-16T21:12:19.604Z,101729.41
2023-04-16T21:15:42.827Z,101726.00
2023-04-16T21:19:04.802Z,101722.59
2023-04-16T21:22:27.001Z,101724.50
2023-04-16T21:25:50.570Z,101728.91
2023-04-16T21:29:13.020Z,101726.31
2023-04-16T21:32:35.097Z,101731.56
2023-04-16T21:35:57.042Z,101733.28
2023-04-16T21:39:21.646Z,101733.28
2023-04-16T21:42:44.920Z,101739.38
2023-04-16T21:46:07.146Z,101736.78
2023-04-16T21:49:29.193Z,101731.56
2023-04-16T21:52:52.620Z,101733.28
2023-04-16T21:56:15.126Z,101728.06
2023-04-16T21:59:38.593Z,101742.84
2023-04-16T22:03:00.902Z,101739.44
2023-04-16T22:06:23.246Z,101739.44
2023-04-16T22:09:45.448Z,101743.81
2023-04-16T22:13:12.783Z,101740.34
2023-04-16T22:16:36.693Z,101736.03
2023-04-16T22:20:00.800Z,101736.13
2023-04-16T22:23:22.930Z,101743.91
2023-04-16T22:26:45.190Z,101743.13
2023-04-16T22:30:08.517Z,101754.41
2023-04-16T22:33:31.936Z,101751.00
2023-04-16T22:36:54.163Z,101745.84
2023-04-16T22:40:16.813Z,101755.41
2023-04-16T22:43:39.017Z,101739.09
2023-04-16T22:47:00.905Z,101752.91
2023-04-16T22:50:24.219Z,101752.06
2023-04-16T22:53:46.554Z,101754.72
2023-04-16T22:57:08.828Z,101758.16
2023-04-16T23:00:30.854Z,101756.47
2023-04-16T23:03:53.880Z,101757.38
2023-04-16T23:07:17.517Z,101749.66
2023-04-16T23:10:39.272Z,101755.69
2023-04-16T23:14:01.253Z,101758.34
2023-04-16T23:17:23.227Z,101760.06
2023-04-16T23:20:44.831Z,101768.78
2023-04-16T23:24:08.635Z,101767.91
2023-04-16T23:27:30.587Z,101768.75
2023-04-16T23:30:53.885Z,101763.59
2023-04-16T23:34:15.714Z,101762.72
2023-04-16T23:37:37.804Z,101758.44
2023-04-16T23:41:01.036Z,101754.97
2023-04-16T23:44:23.219Z,101760.19
2023-04-16T23:47:44.930Z,101761.97
2023-04-16T23:51:07.136Z,101756.81
2023-04-16T23:54:29.651Z,101760.34
2023-04-16T23:57:53.114Z,101764.72
